Terminal Aerodrome Forecast
Issued by NWS

Current Version | Previous Version | Text Only | Print | Product List | Glossary On
Versions: 1 2 3 4 5 6 7 8 9 10 11 12 13 14 15
000
FTUS46 KPDT 230500
TAFPSC
TAF
KPSC 230522Z 2306/2406 33006KT P6SM BKN090
      TEMPO 2306/2308 -SHRA
     FM231800 35009KT P6SM SCT090=

USA.gov is the U.S. government's official web portal to all federal, state and local government web resources and services.